M.v.emerald Indah — S6ID — position and weather

sailwx.info

Track history (hours):
 
Tides and Currents Weather Stations Pressure Air Temp Water Temp Dewpoint Dewpoint Depression Visibility Wind Speed Wind Dir Waves Ship Positions

M.v.emerald Indah

Last reported at 2018-May-12 03:39 UTC. Time now 2018-May-22 19:52 UTC.
Position S 06°59' E 112°41'.
Warning: this ship's position is 10 days out of date.

Length 229 m; draft 7.4 m.

Type: Cargo ship. MMSI: 564749000.

Date/timePositionNaut miles runAvg speedWind from/ knotsBaromVisibWave heightAir tempDewpointWater temp
2018-May-12 03:39S 06°59' E 112°41'213.7
2018-May-12 03:30S 07°01' E 112°40'713.7
2018-May-12 02:59S 07°08' E 112°40'5 0.8
2018-May-11 20:07S 07°12' E 112°43'0 0.0
2018-May-11 11:25S 07°12' E 112°43'0 0.0
2018-May-11 10:46S 07°12' E 112°43'0 0.0
2018-May-11 05:01S 07°12' E 112°43'0 0.0
2018-May-11 04:52S 07°12' E 112°43'0 0.0
2018-May-11 04:22S 07°12' E 112°43'0 0.0
2018-May-11 03:25S 07°12' E 112°43'0 0.0
2018-May-11 02:55S 07°12' E 112°43'0 0.0
2018-May-11 01:13S 07°12' E 112°43'0 0.0
2018-May-10 22:25S 07°12' E 112°43'0 0.0
2018-May-10 21:10S 07°12' E 112°43'0 0.0
2018-May-10 20:49S 07°12' E 112°43'0 0.0
2018-May-10 20:22S 07°12' E 112°43'0 0.0
2018-May-10 15:49S 07°12' E 112°43'0 0.0
2018-May-10 15:25S 07°12' E 112°43'0 0.0
2018-May-10 14:37S 07°12' E 112°43'0 0.0
2018-May-10 14:28S 07°12' E 112°43'0 0.0
2018-May-10 13:16S 07°12' E 112°43'0 0.0
2018-May-10 05:27S 07°12' E 112°43'355 7.6
2018-May-08 06:50S 05°45' E 106°57'512.2
2018-May-08 06:25S 05°50' E 106°57'612.2
2018-May-08 05:57S 05°56' E 106°56'511.2
2018-May-08 05:29S 06°01' E 106°54'4 9.4
2018-May-08 05:00S 06°05' E 106°53'2 3.8
2018-May-08 04:30S 06°06' E 106°55'0 0.0
2018-May-08 04:00S 06°06' E 106°55'0 0.0
2018-May-08 03:30S 06°06' E 106°55'0 0.0
2018-May-08 03:00S 06°06' E 106°55'0 0.0
2018-May-08 02:30S 06°06' E 106°55'0 0.0
2018-May-08 02:00S 06°06' E 106°55'0 0.0
2018-May-08 01:24S 06°06' E 106°55'0 0.0
2018-May-08 01:00S 06°06' E 106°55'0 0.0
2018-May-08 00:27S 06°06' E 106°55'0 0.0
2018-May-08 00:00S 06°06' E 106°55'0 0.0
2018-May-07 23:27S 06°06' E 106°55'0 0.0
2018-May-07 22:57S 06°06' E 106°55'0 0.0
2018-May-07 22:30S 06°06' E 106°55'0 0.0
2018-May-07 21:57S 06°06' E 106°55'0 0.0
2018-May-07 21:30S 06°06' E 106°55'0 0.0
2018-May-07 21:00S 06°06' E 106°55'  
2018-May-04 16:57S 06°02' E 106°54'0 0.1
2018-May-04 16:30S 06°02' E 106°54'0 0.0
2018-May-04 15:54S 06°02' E 106°54'0 0.1
2018-May-04 15:30S 06°02' E 106°54'0 0.0
2018-May-04 14:57S 06°02' E 106°54'0 0.0
2018-May-04 14:27S 06°02' E 106°54'0 0.0
2018-May-04 14:00S 06°02' E 106°54'0 0.1
2018-May-04 11:57S 06°03' E 106°54'0 0.0
2018-May-04 07:30S 06°02' E 106°54'0 0.0
2018-May-04 06:06S 06°02' E 106°54'0 0.0
2018-May-04 05:45S 06°02' E 106°54'0 0.0
2018-May-04 05:06S 06°02' E 106°54'0 0.1
2018-May-04 04:57S 06°02' E 106°54'0 0.0
2018-May-04 03:24S 06°02' E 106°54'0 0.0
2018-May-04 03:00S 06°02' E 106°54'0 0.0
2018-May-04 02:27S 06°02' E 106°54'0 0.0
2018-May-04 01:54S 06°02' E 106°54'0 0.0
2018-May-04 01:30S 06°02' E 106°54'0 0.0
2018-May-04 01:00S 06°02' E 106°54'0 0.0
2018-May-04 00:30S 06°02' E 106°54'0 0.1
2018-May-04 00:00S 06°02' E 106°54'0 0.0
2018-May-03 23:24S 06°02' E 106°54'0 0.0
2018-May-03 23:00S 06°02' E 106°54'0 0.1
2018-May-03 22:30S 06°02' E 106°54'  
Track history (hours):
 
Tides and Currents Weather Stations Pressure Air Temp Water Temp Dewpoint Dewpoint Depression Visibility Wind Speed Wind Dir Waves Ship Positions

M.v.emerald Indah

Last reported at 2018-May-12 03:39 UTC. Time now 2018-May-22 19:52 UTC.
Position S 06°59' E 112°41'.
Warning: this ship's position is 10 days out of date.

Length 229 m; draft 7.4 m.

Type: Cargo ship. MMSI: 564749000.

Date/timePositionNaut miles runAvg speedWind from/ knotsBaromVisibWave heightAir tempDewpointWater temp
2018-May-12 03:39S 06°59' E 112°41'213.7
2018-May-12 03:30S 07°01' E 112°40'713.7
2018-May-12 02:59S 07°08' E 112°40'5 0.8
2018-May-11 20:07S 07°12' E 112°43'0 0.0
2018-May-11 11:25S 07°12' E 112°43'0 0.0
2018-May-11 10:46S 07°12' E 112°43'0 0.0
2018-May-11 05:01S 07°12' E 112°43'0 0.0
2018-May-11 04:52S 07°12' E 112°43'0 0.0
2018-May-11 04:22S 07°12' E 112°43'0 0.0
2018-May-11 03:25S 07°12' E 112°43'0 0.0
2018-May-11 02:55S 07°12' E 112°43'0 0.0
2018-May-11 01:13S 07°12' E 112°43'0 0.0
2018-May-10 22:25S 07°12' E 112°43'0 0.0
2018-May-10 21:10S 07°12' E 112°43'0 0.0
2018-May-10 20:49S 07°12' E 112°43'0 0.0
2018-May-10 20:22S 07°12' E 112°43'0 0.0
2018-May-10 15:49S 07°12' E 112°43'0 0.0
2018-May-10 15:25S 07°12' E 112°43'0 0.0
2018-May-10 14:37S 07°12' E 112°43'0 0.0
2018-May-10 14:28S 07°12' E 112°43'0 0.0
2018-May-10 13:16S 07°12' E 112°43'0 0.0
2018-May-10 05:27S 07°12' E 112°43'355 7.6
2018-May-08 06:50S 05°45' E 106°57'512.2
2018-May-08 06:25S 05°50' E 106°57'612.2
2018-May-08 05:57S 05°56' E 106°56'511.2
2018-May-08 05:29S 06°01' E 106°54'4 9.4
2018-May-08 05:00S 06°05' E 106°53'2 3.8
2018-May-08 04:30S 06°06' E 106°55'0 0.0
2018-May-08 04:00S 06°06' E 106°55'0 0.0
2018-May-08 03:30S 06°06' E 106°55'0 0.0
2018-May-08 03:00S 06°06' E 106°55'0 0.0
2018-May-08 02:30S 06°06' E 106°55'0 0.0
2018-May-08 02:00S 06°06' E 106°55'0 0.0
2018-May-08 01:24S 06°06' E 106°55'0 0.0
2018-May-08 01:00S 06°06' E 106°55'0 0.0
2018-May-08 00:27S 06°06' E 106°55'0 0.0
2018-May-08 00:00S 06°06' E 106°55'0 0.0
2018-May-07 23:27S 06°06' E 106°55'0 0.0
2018-May-07 22:57S 06°06' E 106°55'0 0.0
2018-May-07 22:30S 06°06' E 106°55'0 0.0
2018-May-07 21:57S 06°06' E 106°55'0 0.0
2018-May-07 21:30S 06°06' E 106°55'0 0.0
2018-May-07 21:00S 06°06' E 106°55'  
2018-May-04 16:57S 06°02' E 106°54'0 0.1
2018-May-04 16:30S 06°02' E 106°54'0 0.0
2018-May-04 15:54S 06°02' E 106°54'0 0.1
2018-May-04 15:30S 06°02' E 106°54'0 0.0
2018-May-04 14:57S 06°02' E 106°54'0 0.0
2018-May-04 14:27S 06°02' E 106°54'0 0.0
2018-May-04 14:00S 06°02' E 106°54'0 0.1
2018-May-04 11:57S 06°03' E 106°54'0 0.0
2018-May-04 07:30S 06°02' E 106°54'0 0.0
2018-May-04 06:06S 06°02' E 106°54'0 0.0
2018-May-04 05:45S 06°02' E 106°54'0 0.0
2018-May-04 05:06S 06°02' E 106°54'0 0.1
2018-May-04 04:57S 06°02' E 106°54'0 0.0
2018-May-04 03:24S 06°02' E 106°54'0 0.0
2018-May-04 03:00S 06°02' E 106°54'0 0.0
2018-May-04 02:27S 06°02' E 106°54'0 0.0
2018-May-04 01:54S 06°02' E 106°54'0 0.0
2018-May-04 01:30S 06°02' E 106°54'0 0.0
2018-May-04 01:00S 06°02' E 106°54'0 0.0
2018-May-04 00:30S 06°02' E 106°54'0 0.1
2018-May-04 00:00S 06°02' E 106°54'0 0.0
2018-May-03 23:24S 06°02' E 106°54'0 0.0
2018-May-03 23:00S 06°02' E 106°54'0 0.1
2018-May-03 22:30S 06°02' E 106°54'  

Dump ship's entire track history